sensor_id;sensor_type;location;lat;lon;timestamp;P1;durP1;ratioP1;P2;durP2;ratioP2
9214;SDS011;4642;51.364;6.788;2022-12-18T00:01:27;8.53;;;4.47;;
9214;SDS011;4642;51.364;6.788;2022-12-18T00:03:56;8.53;;;4.47;;
9214;SDS011;4642;51.364;6.788;2022-12-18T00:06:22;8.70;;;5.07;;
9214;SDS011;4642;51.364;6.788;2022-12-18T00:08:49;9.73;;;5.53;;
9214;SDS011;4642;51.364;6.788;2022-12-18T00:11:16;7.23;;;4.17;;
9214;SDS011;4642;51.364;6.788;2022-12-18T00:13:44;8.97;;;5.33;;
9214;SDS011;4642;51.364;6.788;2022-12-18T00:16:12;9.00;;;4.60;;
9214;SDS011;4642;51.364;6.788;2022-12-18T00:18:45;11.00;;;5.30;;
9214;SDS011;4642;51.364;6.788;2022-12-18T00:21:11;9.67;;;5.53;;
9214;SDS011;4642;51.364;6.788;2022-12-18T00:23:39;11.67;;;5.20;;
9214;SDS011;4642;51.364;6.788;2022-12-18T00:26:07;8.87;;;5.17;;
9214;SDS011;4642;51.364;6.788;2022-12-18T00:28:38;6.03;;;4.07;;
9214;SDS011;4642;51.364;6.788;2022-12-18T00:31:05;8.10;;;4.23;;
9214;SDS011;4642;51.364;6.788;2022-12-18T00:33:32;10.30;;;5.40;;
9214;SDS011;4642;51.364;6.788;2022-12-18T00:36:01;7.90;;;4.90;;
9214;SDS011;4642;51.364;6.788;2022-12-18T00:38:28;9.93;;;5.17;;
9214;SDS011;4642;51.364;6.788;2022-12-18T00:40:53;10.93;;;4.50;;
9214;SDS011;4642;51.364;6.788;2022-12-18T00:43:19;7.43;;;3.90;;
9214;SDS011;4642;51.364;6.788;2022-12-18T00:45:44;8.17;;;4.20;;
9214;SDS011;4642;51.364;6.788;2022-12-18T00:48:10;9.40;;;4.77;;
9214;SDS011;4642;51.364;6.788;2022-12-18T00:50:36;6.63;;;4.20;;
9214;SDS011;4642;51.364;6.788;2022-12-18T00:53:01;7.00;;;4.40;;
9214;SDS011;4642;51.364;6.788;2022-12-18T00:55:27;9.60;;;5.37;;
9214;SDS011;4642;51.364;6.788;2022-12-18T00:57:52;11.23;;;4.87;;
9214;SDS011;4642;51.364;6.788;2022-12-18T01:00:18;8.90;;;4.73;;
9214;SDS011;4642;51.364;6.788;2022-12-18T01:02:44;10.47;;;4.67;;
9214;SDS011;4642;51.364;6.788;2022-12-18T01:05:10;9.37;;;5.30;;
9214;SDS011;4642;51.364;6.788;2022-12-18T01:07:37;8.60;;;5.17;;
9214;SDS011;4642;51.364;6.788;2022-12-18T01:10:03;11.57;;;4.97;;
9214;SDS011;4642;51.364;6.788;2022-12-18T01:12:29;8.90;;;5.37;;
9214;SDS011;4642;51.364;6.788;2022-12-18T01:14:54;10.87;;;4.73;;
9214;SDS011;4642;51.364;6.788;2022-12-18T01:17:21;7.23;;;4.10;;
9214;SDS011;4642;51.364;6.788;2022-12-18T01:19:46;9.57;;;5.10;;
9214;SDS011;4642;51.364;6.788;2022-12-18T01:22:12;7.57;;;4.20;;
9214;SDS011;4642;51.364;6.788;2022-12-18T01:24:37;9.80;;;4.90;;
9214;SDS011;4642;51.364;6.788;2022-12-18T01:27:03;8.07;;;4.97;;
9214;SDS011;4642;51.364;6.788;2022-12-18T01:29:28;11.97;;;5.20;;
9214;SDS011;4642;51.364;6.788;2022-12-18T01:31:55;6.43;;;3.83;;
9214;SDS011;4642;51.364;6.788;2022-12-18T01:34:21;8.40;;;4.73;;
9214;SDS011;4642;51.364;6.788;2022-12-18T01:36:47;6.67;;;4.17;;
9214;SDS011;4642;51.364;6.788;2022-12-18T01:39:13;7.60;;;4.23;;
9214;SDS011;4642;51.364;6.788;2022-12-18T01:41:39;7.07;;;3.90;;
9214;SDS011;4642;51.364;6.788;2022-12-18T01:47:32;7.70;;;4.40;;
9214;SDS011;4642;51.364;6.788;2022-12-18T01:52:52;7.30;;;3.57;;
9214;SDS011;4642;51.364;6.788;2022-12-18T01:55:22;6.23;;;3.93;;
9214;SDS011;4642;51.364;6.788;2022-12-18T01:57:52;6.47;;;4.57;;
9214;SDS011;4642;51.364;6.788;2022-12-18T02:00:20;11.77;;;4.63;;
9214;SDS011;4642;51.364;6.788;2022-12-18T02:02:47;9.73;;;5.03;;
9214;SDS011;4642;51.364;6.788;2022-12-18T02:05:17;7.37;;;4.17;;
9214;SDS011;4642;51.364;6.788;2022-12-18T02:08:21;9.17;;;5.10;;
9214;SDS011;4642;51.364;6.788;2022-12-18T02:10:55;8.27;;;4.27;;
9214;SDS011;4642;51.364;6.788;2022-12-18T02:13:36;6.70;;;4.27;;
9214;SDS011;4642;51.364;6.788;2022-12-18T02:18:50;8.60;;;5.03;;
9214;SDS011;4642;51.364;6.788;2022-12-18T02:23:57;8.37;;;4.83;;
9214;SDS011;4642;51.364;6.788;2022-12-18T02:26:56;8.07;;;4.40;;
9214;SDS011;4642;51.364;6.788;2022-12-18T02:29:34;9.43;;;4.80;;
9214;SDS011;4642;51.364;6.788;2022-12-18T02:32:00;8.80;;;5.00;;
9214;SDS011;4642;51.364;6.788;2022-12-18T02:34:30;7.70;;;4.93;;
9214;SDS011;4642;51.364;6.788;2022-12-18T02:36:58;9.43;;;4.87;;
9214;SDS011;4642;51.364;6.788;2022-12-18T02:39:27;7.90;;;4.30;;
9214;SDS011;4642;51.364;6.788;2022-12-18T02:41:54;9.63;;;5.17;;
9214;SDS011;4642;51.364;6.788;2022-12-18T02:44:20;10.10;;;4.50;;
9214;SDS011;4642;51.364;6.788;2022-12-18T02:46:46;10.63;;;4.70;;
9214;SDS011;4642;51.364;6.788;2022-12-18T02:52:21;11.17;;;4.67;;
9214;SDS011;4642;51.364;6.788;2022-12-18T03:01:01;7.77;;;4.57;;
9214;SDS011;4642;51.364;6.788;2022-12-18T03:03:50;8.03;;;4.73;;
9214;SDS011;4642;51.364;6.788;2022-12-18T03:08:48;9.80;;;4.70;;
9214;SDS011;4642;51.364;6.788;2022-12-18T03:11:18;9.70;;;5.40;;
9214;SDS011;4642;51.364;6.788;2022-12-18T03:14:04;9.70;;;4.87;;
9214;SDS011;4642;51.364;6.788;2022-12-18T03:16:31;9.60;;;5.70;;
9214;SDS011;4642;51.364;6.788;2022-12-18T03:19:14;8.57;;;5.10;;
9214;SDS011;4642;51.364;6.788;2022-12-18T03:21:44;8.87;;;4.30;;
9214;SDS011;4642;51.364;6.788;2022-12-18T03:24:12;7.30;;;4.37;;
9214;SDS011;4642;51.364;6.788;2022-12-18T03:26:42;12.80;;;5.53;;
9214;SDS011;4642;51.364;6.788;2022-12-18T03:29:11;8.83;;;4.63;;
9214;SDS011;4642;51.364;6.788;2022-12-18T03:31:42;8.50;;;5.10;;
9214;SDS011;4642;51.364;6.788;2022-12-18T03:34:15;7.17;;;4.37;;
9214;SDS011;4642;51.364;6.788;2022-12-18T03:36:44;9.87;;;4.67;;
9214;SDS011;4642;51.364;6.788;2022-12-18T03:39:10;9.83;;;4.93;;
9214;SDS011;4642;51.364;6.788;2022-12-18T03:41:51;8.13;;;5.07;;
9214;SDS011;4642;51.364;6.788;2022-12-18T03:52:28;9.13;;;4.90;;
9214;SDS011;4642;51.364;6.788;2022-12-18T03:55:00;8.27;;;4.57;;
9214;SDS011;4642;51.364;6.788;2022-12-18T03:57:28;9.17;;;4.27;;
9214;SDS011;4642;51.364;6.788;2022-12-18T04:00:29;8.03;;;5.10;;
9214;SDS011;4642;51.364;6.788;2022-12-18T04:02:49;7.37;;;4.07;;
9214;SDS011;4642;51.364;6.788;2022-12-18T04:05:17;6.33;;;3.73;;
9214;SDS011;4642;51.364;6.788;2022-12-18T04:07:45;10.80;;;5.37;;
9214;SDS011;4642;51.364;6.788;2022-12-18T04:10:13;6.97;;;4.50;;
9214;SDS011;4642;51.364;6.788;2022-12-18T04:12:40;7.77;;;4.67;;
9214;SDS011;4642;51.364;6.788;2022-12-18T04:15:06;9.43;;;4.87;;
9214;SDS011;4642;51.364;6.788;2022-12-18T04:17:32;7.93;;;4.37;;
9214;SDS011;4642;51.364;6.788;2022-12-18T04:19:58;9.73;;;4.10;;
9214;SDS011;4642;51.364;6.788;2022-12-18T04:22:23;9.17;;;4.20;;
9214;SDS011;4642;51.364;6.788;2022-12-18T04:24:49;7.03;;;3.87;;
9214;SDS011;4642;51.364;6.788;2022-12-18T04:27:14;7.37;;;4.00;;
9214;SDS011;4642;51.364;6.788;2022-12-18T04:29:40;5.83;;;3.50;;
9214;SDS011;4642;51.364;6.788;2022-12-18T04:32:05;6.37;;;3.93;;
9214;SDS011;4642;51.364;6.788;2022-12-18T04:34:32;5.87;;;3.73;;
9214;SDS011;4642;51.364;6.788;2022-12-18T04:36:57;7.37;;;4.63;;
9214;SDS011;4642;51.364;6.788;2022-12-18T04:39:23;9.17;;;4.07;;
9214;SDS011;4642;51.364;6.788;2022-12-18T04:41:49;6.97;;;4.33;;
9214;SDS011;4642;51.364;6.788;2022-12-18T04:44:14;6.63;;;3.40;;
9214;SDS011;4642;51.364;6.788;2022-12-18T04:46:40;6.93;;;3.83;;
9214;SDS011;4642;51.364;6.788;2022-12-18T04:49:05;6.67;;;4.03;;
9214;SDS011;4642;51.364;6.788;2022-12-18T04:51:31;5.77;;;3.57;;
9214;SDS011;4642;51.364;6.788;2022-12-18T04:53:56;5.30;;;3.60;;
9214;SDS011;4642;51.364;6.788;2022-12-18T04:56:22;6.90;;;3.60;;
9214;SDS011;4642;51.364;6.788;2022-12-18T04:58:47;9.50;;;4.23;;
9214;SDS011;4642;51.364;6.788;2022-12-18T05:01:14;8.43;;;4.07;;
9214;SDS011;4642;51.364;6.788;2022-12-18T05:03:41;7.43;;;4.00;;
9214;SDS011;4642;51.364;6.788;2022-12-18T05:06:07;5.83;;;2.97;;
9214;SDS011;4642;51.364;6.788;2022-12-18T05:08:33;6.90;;;3.83;;
9214;SDS011;4642;51.364;6.788;2022-12-18T05:13:25;5.80;;;3.60;;
9214;SDS011;4642;51.364;6.788;2022-12-18T05:15:51;6.40;;;3.67;;
9214;SDS011;4642;51.364;6.788;2022-12-18T05:18:17;8.27;;;4.10;;
9214;SDS011;4642;51.364;6.788;2022-12-18T05:20:43;7.50;;;3.97;;
9214;SDS011;4642;51.364;6.788;2022-12-18T05:23:08;5.57;;;3.47;;
9214;SDS011;4642;51.364;6.788;2022-12-18T05:25:34;5.13;;;2.87;;
9214;SDS011;4642;51.364;6.788;2022-12-18T05:27:59;6.57;;;3.40;;
9214;SDS011;4642;51.364;6.788;2022-12-18T05:30:25;6.53;;;3.27;;
9214;SDS011;4642;51.364;6.788;2022-12-18T05:32:50;5.40;;;3.23;;
9214;SDS011;4642;51.364;6.788;2022-12-18T05:35:16;6.73;;;3.80;;
9214;SDS011;4642;51.364;6.788;2022-12-18T05:37:41;7.33;;;3.57;;
9214;SDS011;4642;51.364;6.788;2022-12-18T05:40:07;5.43;;;3.03;;
9214;SDS011;4642;51.364;6.788;2022-12-18T05:42:33;8.73;;;3.67;;
9214;SDS011;4642;51.364;6.788;2022-12-18T05:44:59;4.90;;;2.90;;
9214;SDS011;4642;51.364;6.788;2022-12-18T05:47:24;5.57;;;2.97;;
9214;SDS011;4642;51.364;6.788;2022-12-18T05:49:50;4.77;;;3.57;;
9214;SDS011;4642;51.364;6.788;2022-12-18T05:52:15;5.83;;;3.37;;
9214;SDS011;4642;51.364;6.788;2022-12-18T05:54:41;7.03;;;3.57;;
9214;SDS011;4642;51.364;6.788;2022-12-18T05:57:06;7.70;;;3.70;;
9214;SDS011;4642;51.364;6.788;2022-12-18T05:59:32;6.80;;;3.37;;
9214;SDS011;4642;51.364;6.788;2022-12-18T06:01:57;5.23;;;3.40;;
9214;SDS011;4642;51.364;6.788;2022-12-18T06:04:23;5.50;;;3.10;;
9214;SDS011;4642;51.364;6.788;2022-12-18T06:06:48;5.77;;;3.97;;
9214;SDS011;4642;51.364;6.788;2022-12-18T06:09:14;5.70;;;3.33;;
9214;SDS011;4642;51.364;6.788;2022-12-18T06:11:39;6.27;;;3.30;;
9214;SDS011;4642;51.364;6.788;2022-12-18T06:14:06;4.33;;;2.83;;
9214;SDS011;4642;51.364;6.788;2022-12-18T06:16:32;6.20;;;3.00;;
9214;SDS011;4642;51.364;6.788;2022-12-18T06:18:58;5.80;;;3.13;;
9214;SDS011;4642;51.364;6.788;2022-12-18T06:21:25;6.27;;;3.17;;
9214;SDS011;4642;51.364;6.788;2022-12-18T06:23:51;5.33;;;3.40;;
9214;SDS011;4642;51.364;6.788;2022-12-18T06:26:16;9.33;;;3.60;;
9214;SDS011;4642;51.364;6.788;2022-12-18T06:28:42;5.63;;;2.90;;
9214;SDS011;4642;51.364;6.788;2022-12-18T06:31:08;5.30;;;3.00;;
9214;SDS011;4642;51.364;6.788;2022-12-18T06:33:34;5.77;;;3.03;;
9214;SDS011;4642;51.364;6.788;2022-12-18T06:36:01;5.67;;;2.97;;
9214;SDS011;4642;51.364;6.788;2022-12-18T06:38:32;5.80;;;2.90;;
9214;SDS011;4642;51.364;6.788;2022-12-18T06:40:58;5.90;;;3.20;;
9214;SDS011;4642;51.364;6.788;2022-12-18T06:43:24;6.23;;;3.63;;
9214;SDS011;4642;51.364;6.788;2022-12-18T06:45:50;4.67;;;2.90;;
9214;SDS011;4642;51.364;6.788;2022-12-18T06:48:20;3.77;;;2.37;;
9214;SDS011;4642;51.364;6.788;2022-12-18T06:50:46;7.37;;;3.00;;
9214;SDS011;4642;51.364;6.788;2022-12-18T06:53:12;5.57;;;2.90;;
9214;SDS011;4642;51.364;6.788;2022-12-18T06:55:37;6.40;;;3.07;;
9214;SDS011;4642;51.364;6.788;2022-12-18T06:58:03;6.53;;;3.40;;
9214;SDS011;4642;51.364;6.788;2022-12-18T07:00:28;3.20;;;2.10;;
9214;SDS011;4642;51.364;6.788;2022-12-18T07:02:54;3.83;;;2.40;;
9214;SDS011;4642;51.364;6.788;2022-12-18T07:05:19;5.80;;;3.23;;
9214;SDS011;4642;51.364;6.788;2022-12-18T07:07:45;4.20;;;2.70;;
9214;SDS011;4642;51.364;6.788;2022-12-18T07:10:11;5.90;;;3.27;;
9214;SDS011;4642;51.364;6.788;2022-12-18T07:12:36;5.00;;;2.63;;
9214;SDS011;4642;51.364;6.788;2022-12-18T07:15:02;5.07;;;2.70;;
9214;SDS011;4642;51.364;6.788;2022-12-18T07:17:28;6.20;;;2.83;;
9214;SDS011;4642;51.364;6.788;2022-12-18T07:19:54;5.30;;;3.47;;
9214;SDS011;4642;51.364;6.788;2022-12-18T07:22:20;3.43;;;2.33;;
9214;SDS011;4642;51.364;6.788;2022-12-18T07:24:46;4.40;;;2.67;;
9214;SDS011;4642;51.364;6.788;2022-12-18T07:27:15;5.10;;;2.60;;
9214;SDS011;4642;51.364;6.788;2022-12-18T07:29:40;6.10;;;3.23;;
9214;SDS011;4642;51.364;6.788;2022-12-18T07:32:06;7.07;;;2.83;;
9214;SDS011;4642;51.364;6.788;2022-12-18T07:34:32;4.87;;;2.73;;
9214;SDS011;4642;51.364;6.788;2022-12-18T07:36:57;6.10;;;3.43;;
9214;SDS011;4642;51.364;6.788;2022-12-18T07:39:23;7.83;;;4.37;;
9214;SDS011;4642;51.364;6.788;2022-12-18T07:41:48;4.70;;;3.33;;
9214;SDS011;4642;51.364;6.788;2022-12-18T07:44:34;6.17;;;3.27;;
9214;SDS011;4642;51.364;6.788;2022-12-18T07:47:00;5.17;;;3.73;;
9214;SDS011;4642;51.364;6.788;2022-12-18T07:49:25;6.17;;;3.97;;
9214;SDS011;4642;51.364;6.788;2022-12-18T07:51:51;5.57;;;3.20;;
9214;SDS011;4642;51.364;6.788;2022-12-18T07:54:18;8.33;;;3.90;;
9214;SDS011;4642;51.364;6.788;2022-12-18T07:56:44;7.20;;;4.03;;
9214;SDS011;4642;51.364;6.788;2022-12-18T07:59:09;8.07;;;3.90;;
9214;SDS011;4642;51.364;6.788;2022-12-18T08:01:35;7.13;;;3.60;;
9214;SDS011;4642;51.364;6.788;2022-12-18T08:04:00;5.97;;;4.00;;
9214;SDS011;4642;51.364;6.788;2022-12-18T08:06:26;6.97;;;4.10;;
9214;SDS011;4642;51.364;6.788;2022-12-18T08:08:52;7.13;;;3.97;;
9214;SDS011;4642;51.364;6.788;2022-12-18T08:11:18;7.83;;;4.23;;
9214;SDS011;4642;51.364;6.788;2022-12-18T08:13:44;8.67;;;5.10;;
9214;SDS011;4642;51.364;6.788;2022-12-18T08:16:09;7.27;;;4.27;;
9214;SDS011;4642;51.364;6.788;2022-12-18T08:18:36;9.93;;;4.87;;
9214;SDS011;4642;51.364;6.788;2022-12-18T08:21:12;7.40;;;4.80;;
9214;SDS011;4642;51.364;6.788;2022-12-18T08:23:39;9.20;;;4.63;;
9214;SDS011;4642;51.364;6.788;2022-12-18T08:26:05;9.47;;;5.00;;
9214;SDS011;4642;51.364;6.788;2022-12-18T08:28:31;8.60;;;4.80;;
9214;SDS011;4642;51.364;6.788;2022-12-18T08:30:57;10.60;;;4.73;;
9214;SDS011;4642;51.364;6.788;2022-12-18T08:33:23;10.33;;;5.30;;
9214;SDS011;4642;51.364;6.788;2022-12-18T08:35:48;9.20;;;4.77;;
9214;SDS011;4642;51.364;6.788;2022-12-18T08:38:14;10.07;;;4.67;;
9214;SDS011;4642;51.364;6.788;2022-12-18T08:40:39;8.10;;;4.77;;
9214;SDS011;4642;51.364;6.788;2022-12-18T08:43:05;6.57;;;4.53;;
9214;SDS011;4642;51.364;6.788;2022-12-18T08:45:51;8.70;;;4.60;;
9214;SDS011;4642;51.364;6.788;2022-12-18T08:48:16;9.60;;;5.23;;
9214;SDS011;4642;51.364;6.788;2022-12-18T08:50:42;9.63;;;5.50;;
9214;SDS011;4642;51.364;6.788;2022-12-18T08:53:07;11.83;;;5.57;;
9214;SDS011;4642;51.364;6.788;2022-12-18T08:55:34;9.07;;;5.33;;
9214;SDS011;4642;51.364;6.788;2022-12-18T08:57:59;9.97;;;4.83;;
9214;SDS011;4642;51.364;6.788;2022-12-18T09:00:25;9.23;;;5.10;;
9214;SDS011;4642;51.364;6.788;2022-12-18T09:02:50;10.80;;;4.80;;
9214;SDS011;4642;51.364;6.788;2022-12-18T09:05:16;10.77;;;5.40;;
9214;SDS011;4642;51.364;6.788;2022-12-18T09:07:41;9.30;;;5.50;;
9214;SDS011;4642;51.364;6.788;2022-12-18T09:10:07;8.50;;;4.80;;
9214;SDS011;4642;51.364;6.788;2022-12-18T09:12:33;8.70;;;5.33;;
9214;SDS011;4642;51.364;6.788;2022-12-18T09:14:58;8.83;;;4.93;;
9214;SDS011;4642;51.364;6.788;2022-12-18T09:17:24;9.03;;;5.00;;
9214;SDS011;4642;51.364;6.788;2022-12-18T09:19:49;10.10;;;4.80;;
9214;SDS011;4642;51.364;6.788;2022-12-18T09:22:14;10.40;;;5.10;;
9214;SDS011;4642;51.364;6.788;2022-12-18T09:24:40;8.93;;;5.00;;
9214;SDS011;4642;51.364;6.788;2022-12-18T09:27:06;9.47;;;5.43;;
9214;SDS011;4642;51.364;6.788;2022-12-18T09:29:32;10.80;;;5.53;;
9214;SDS011;4642;51.364;6.788;2022-12-18T09:31:57;7.43;;;4.73;;
9214;SDS011;4642;51.364;6.788;2022-12-18T09:34:23;8.73;;;4.80;;
9214;SDS011;4642;51.364;6.788;2022-12-18T09:36:48;7.43;;;4.80;;
9214;SDS011;4642;51.364;6.788;2022-12-18T09:39:14;9.23;;;4.67;;
9214;SDS011;4642;51.364;6.788;2022-12-18T09:44:17;10.57;;;5.20;;
9214;SDS011;4642;51.364;6.788;2022-12-18T09:46:51;8.83;;;3.77;;
9214;SDS011;4642;51.364;6.788;2022-12-18T09:49:40;8.23;;;5.10;;
9214;SDS011;4642;51.364;6.788;2022-12-18T09:52:09;7.27;;;4.57;;
9214;SDS011;4642;51.364;6.788;2022-12-18T09:54:44;6.83;;;4.50;;
9214;SDS011;4642;51.364;6.788;2022-12-18T09:57:19;9.33;;;4.80;;
9214;SDS011;4642;51.364;6.788;2022-12-18T09:59:48;7.83;;;4.30;;
9214;SDS011;4642;51.364;6.788;2022-12-18T10:02:21;7.97;;;4.43;;
9214;SDS011;4642;51.364;6.788;2022-12-18T10:07:52;9.23;;;4.80;;
9214;SDS011;4642;51.364;6.788;2022-12-18T10:10:47;7.20;;;4.73;;
9214;SDS011;4642;51.364;6.788;2022-12-18T10:18:58;7.53;;;3.90;;
9214;SDS011;4642;51.364;6.788;2022-12-18T10:24:53;6.80;;;4.07;;
9214;SDS011;4642;51.364;6.788;2022-12-18T10:27:27;8.13;;;4.60;;
9214;SDS011;4642;51.364;6.788;2022-12-18T10:29:54;9.20;;;4.23;;
9214;SDS011;4642;51.364;6.788;2022-12-18T10:32:21;10.93;;;4.57;;
9214;SDS011;4642;51.364;6.788;2022-12-18T10:34:48;12.00;;;4.70;;
9214;SDS011;4642;51.364;6.788;2022-12-18T10:37:17;9.00;;;4.57;;
9214;SDS011;4642;51.364;6.788;2022-12-18T10:39:45;6.63;;;4.23;;
9214;SDS011;4642;51.364;6.788;2022-12-18T10:42:16;10.77;;;4.43;;
9214;SDS011;4642;51.364;6.788;2022-12-18T10:44:44;7.27;;;4.27;;
9214;SDS011;4642;51.364;6.788;2022-12-18T10:47:12;7.77;;;4.13;;
9214;SDS011;4642;51.364;6.788;2022-12-18T10:49:45;9.80;;;4.90;;
9214;SDS011;4642;51.364;6.788;2022-12-18T10:52:18;8.87;;;4.60;;
9214;SDS011;4642;51.364;6.788;2022-12-18T10:54:53;5.93;;;4.00;;
9214;SDS011;4642;51.364;6.788;2022-12-18T10:59:55;7.43;;;4.83;;
9214;SDS011;4642;51.364;6.788;2022-12-18T11:05:01;6.43;;;4.10;;
9214;SDS011;4642;51.364;6.788;2022-12-18T11:07:45;7.43;;;4.57;;
9214;SDS011;4642;51.364;6.788;2022-12-18T11:10:17;7.10;;;4.63;;
9214;SDS011;4642;51.364;6.788;2022-12-18T11:12:44;7.23;;;4.23;;
9214;SDS011;4642;51.364;6.788;2022-12-18T11:15:15;7.83;;;4.40;;
9214;SDS011;4642;51.364;6.788;2022-12-18T11:17:52;6.20;;;3.90;;
9214;SDS011;4642;51.364;6.788;2022-12-18T11:20:27;8.87;;;4.10;;
9214;SDS011;4642;51.364;6.788;2022-12-18T11:23:04;8.50;;;4.93;;
9214;SDS011;4642;51.364;6.788;2022-12-18T11:25:36;7.77;;;4.70;;
9214;SDS011;4642;51.364;6.788;2022-12-18T11:28:25;9.53;;;4.87;;
9214;SDS011;4642;51.364;6.788;2022-12-18T11:31:08;7.33;;;4.13;;
9214;SDS011;4642;51.364;6.788;2022-12-18T11:34:10;6.43;;;3.87;;
9214;SDS011;4642;51.364;6.788;2022-12-18T11:36:52;7.67;;;4.43;;
9214;SDS011;4642;51.364;6.788;2022-12-18T11:39:39;7.47;;;3.77;;
9214;SDS011;4642;51.364;6.788;2022-12-18T11:47:33;7.97;;;4.37;;
9214;SDS011;4642;51.364;6.788;2022-12-18T11:50:10;6.83;;;4.57;;
9214;SDS011;4642;51.364;6.788;2022-12-18T11:52:43;9.13;;;4.60;;
9214;SDS011;4642;51.364;6.788;2022-12-18T11:55:13;8.70;;;4.47;;
9214;SDS011;4642;51.364;6.788;2022-12-18T12:00:20;10.60;;;4.87;;
9214;SDS011;4642;51.364;6.788;2022-12-18T12:05:52;7.23;;;4.40;;
9214;SDS011;4642;51.364;6.788;2022-12-18T12:11:06;8.83;;;4.60;;
9214;SDS011;4642;51.364;6.788;2022-12-18T12:16:37;9.20;;;5.17;;
9214;SDS011;4642;51.364;6.788;2022-12-18T12:19:20;9.23;;;5.20;;
9214;SDS011;4642;51.364;6.788;2022-12-18T12:24:33;9.10;;;5.83;;
9214;SDS011;4642;51.364;6.788;2022-12-18T12:27:24;9.80;;;5.50;;
9214;SDS011;4642;51.364;6.788;2022-12-18T12:32:41;9.23;;;4.60;;
9214;SDS011;4642;51.364;6.788;2022-12-18T12:35:36;9.77;;;4.97;;
9214;SDS011;4642;51.364;6.788;2022-12-18T12:38:24;9.07;;;5.33;;
9214;SDS011;4642;51.364;6.788;2022-12-18T12:41:02;8.30;;;4.33;;
9214;SDS011;4642;51.364;6.788;2022-12-18T12:43:38;8.27;;;5.27;;
9214;SDS011;4642;51.364;6.788;2022-12-18T12:46:11;7.67;;;5.60;;
9214;SDS011;4642;51.364;6.788;2022-12-18T12:51:10;10.73;;;5.47;;
9214;SDS011;4642;51.364;6.788;2022-12-18T12:53:39;8.57;;;5.50;;
9214;SDS011;4642;51.364;6.788;2022-12-18T12:56:06;10.10;;;5.63;;
9214;SDS011;4642;51.364;6.788;2022-12-18T12:58:38;9.67;;;5.30;;
9214;SDS011;4642;51.364;6.788;2022-12-18T13:09:22;9.57;;;5.57;;
9214;SDS011;4642;51.364;6.788;2022-12-18T13:11:48;11.77;;;7.07;;
9214;SDS011;4642;51.364;6.788;2022-12-18T13:14:33;9.00;;;6.03;;
9214;SDS011;4642;51.364;6.788;2022-12-18T13:17:13;10.83;;;5.93;;
9214;SDS011;4642;51.364;6.788;2022-12-18T13:19:51;11.50;;;6.17;;
9214;SDS011;4642;51.364;6.788;2022-12-18T13:22:35;11.20;;;6.87;;
9214;SDS011;4642;51.364;6.788;2022-12-18T13:25:03;9.53;;;6.07;;
9214;SDS011;4642;51.364;6.788;2022-12-18T13:38:21;11.87;;;6.17;;
9214;SDS011;4642;51.364;6.788;2022-12-18T13:40:57;12.13;;;7.03;;
9214;SDS011;4642;51.364;6.788;2022-12-18T13:43:28;11.50;;;6.77;;
9214;SDS011;4642;51.364;6.788;2022-12-18T13:48:49;13.63;;;7.67;;
9214;SDS011;4642;51.364;6.788;2022-12-18T13:51:18;13.20;;;7.10;;
9214;SDS011;4642;51.364;6.788;2022-12-18T13:53:49;10.73;;;6.83;;
9214;SDS011;4642;51.364;6.788;2022-12-18T13:56:16;11.53;;;6.63;;
9214;SDS011;4642;51.364;6.788;2022-12-18T13:58:46;10.47;;;6.50;;
9214;SDS011;4642;51.364;6.788;2022-12-18T14:01:30;12.50;;;7.13;;
9214;SDS011;4642;51.364;6.788;2022-12-18T14:09:31;11.83;;;6.97;;
9214;SDS011;4642;51.364;6.788;2022-12-18T14:12:01;14.37;;;6.93;;
9214;SDS011;4642;51.364;6.788;2022-12-18T14:14:49;13.33;;;6.40;;
9214;SDS011;4642;51.364;6.788;2022-12-18T14:17:17;15.93;;;7.33;;
9214;SDS011;4642;51.364;6.788;2022-12-18T14:19:44;19.57;;;8.03;;
9214;SDS011;4642;51.364;6.788;2022-12-18T14:22:19;13.00;;;7.20;;
9214;SDS011;4642;51.364;6.788;2022-12-18T14:24:47;13.17;;;7.63;;
9214;SDS011;4642;51.364;6.788;2022-12-18T14:27:29;13.33;;;8.00;;
9214;SDS011;4642;51.364;6.788;2022-12-18T14:29:55;14.33;;;7.37;;
9214;SDS011;4642;51.364;6.788;2022-12-18T14:32:20;12.83;;;7.90;;
9214;SDS011;4642;51.364;6.788;2022-12-18T14:34:52;14.30;;;7.27;;
9214;SDS011;4642;51.364;6.788;2022-12-18T14:37:25;13.23;;;8.00;;
9214;SDS011;4642;51.364;6.788;2022-12-18T14:39:55;15.37;;;8.27;;
9214;SDS011;4642;51.364;6.788;2022-12-18T14:42:26;11.13;;;7.17;;
9214;SDS011;4642;51.364;6.788;2022-12-18T14:47:57;16.27;;;7.47;;
9214;SDS011;4642;51.364;6.788;2022-12-18T14:50:23;16.57;;;8.20;;
9214;SDS011;4642;51.364;6.788;2022-12-18T14:52:49;14.50;;;8.23;;
9214;SDS011;4642;51.364;6.788;2022-12-18T14:55:16;14.13;;;8.63;;
9214;SDS011;4642;51.364;6.788;2022-12-18T14:57:43;11.37;;;7.03;;
9214;SDS011;4642;51.364;6.788;2022-12-18T15:00:16;13.83;;;7.77;;
9214;SDS011;4642;51.364;6.788;2022-12-18T15:02:51;14.67;;;8.37;;
9214;SDS011;4642;51.364;6.788;2022-12-18T15:05:21;14.80;;;8.27;;
9214;SDS011;4642;51.364;6.788;2022-12-18T15:07:54;18.13;;;9.60;;
9214;SDS011;4642;51.364;6.788;2022-12-18T15:10:22;11.47;;;7.70;;
9214;SDS011;4642;51.364;6.788;2022-12-18T15:20:33;15.57;;;8.53;;
9214;SDS011;4642;51.364;6.788;2022-12-18T15:23:31;14.47;;;8.70;;
9214;SDS011;4642;51.364;6.788;2022-12-18T15:26:08;14.00;;;8.40;;
9214;SDS011;4642;51.364;6.788;2022-12-18T15:28:39;15.60;;;8.87;;
9214;SDS011;4642;51.364;6.788;2022-12-18T15:33:44;16.47;;;8.00;;
9214;SDS011;4642;51.364;6.788;2022-12-18T15:36:25;13.50;;;8.07;;
9214;SDS011;4642;51.364;6.788;2022-12-18T15:38:51;15.77;;;8.57;;
9214;SDS011;4642;51.364;6.788;2022-12-18T15:41:19;16.10;;;8.80;;
9214;SDS011;4642;51.364;6.788;2022-12-18T15:43:46;15.23;;;8.70;;
9214;SDS011;4642;51.364;6.788;2022-12-18T15:46:17;12.93;;;8.27;;
9214;SDS011;4642;51.364;6.788;2022-12-18T15:48:46;13.47;;;7.73;;
9214;SDS011;4642;51.364;6.788;2022-12-18T15:53:50;15.63;;;9.20;;
9214;SDS011;4642;51.364;6.788;2022-12-18T15:56:19;13.50;;;8.40;;
9214;SDS011;4642;51.364;6.788;2022-12-18T15:59:24;17.17;;;9.53;;
9214;SDS011;4642;51.364;6.788;2022-12-18T16:01:49;18.17;;;8.93;;
9214;SDS011;4642;51.364;6.788;2022-12-18T16:04:18;17.47;;;9.03;;
9214;SDS011;4642;51.364;6.788;2022-12-18T16:06:45;18.13;;;8.53;;
9214;SDS011;4642;51.364;6.788;2022-12-18T16:09:11;14.63;;;8.90;;
9214;SDS011;4642;51.364;6.788;2022-12-18T16:11:37;15.80;;;9.10;;
9214;SDS011;4642;51.364;6.788;2022-12-18T16:16:44;17.97;;;9.50;;
9214;SDS011;4642;51.364;6.788;2022-12-18T16:19:14;18.43;;;9.93;;
9214;SDS011;4642;51.364;6.788;2022-12-18T16:21:41;16.03;;;9.13;;
9214;SDS011;4642;51.364;6.788;2022-12-18T16:24:10;16.90;;;10.20;;
9214;SDS011;4642;51.364;6.788;2022-12-18T16:26:47;19.37;;;9.23;;
9214;SDS011;4642;51.364;6.788;2022-12-18T16:29:13;17.07;;;9.57;;
9214;SDS011;4642;51.364;6.788;2022-12-18T16:31:39;19.60;;;10.57;;
9214;SDS011;4642;51.364;6.788;2022-12-18T16:34:24;18.77;;;10.37;;
9214;SDS011;4642;51.364;6.788;2022-12-18T16:36:55;19.43;;;10.10;;
9214;SDS011;4642;51.364;6.788;2022-12-18T16:39:23;18.63;;;10.70;;
9214;SDS011;4642;51.364;6.788;2022-12-18T16:41:49;17.30;;;10.43;;
9214;SDS011;4642;51.364;6.788;2022-12-18T16:44:14;19.63;;;10.33;;
9214;SDS011;4642;51.364;6.788;2022-12-18T16:46:40;20.27;;;9.93;;
9214;SDS011;4642;51.364;6.788;2022-12-18T16:49:08;17.73;;;10.47;;
9214;SDS011;4642;51.364;6.788;2022-12-18T16:51:33;17.30;;;10.57;;
9214;SDS011;4642;51.364;6.788;2022-12-18T16:53:59;17.53;;;9.97;;
9214;SDS011;4642;51.364;6.788;2022-12-18T16:56:25;21.30;;;11.77;;
9214;SDS011;4642;51.364;6.788;2022-12-18T16:58:51;16.77;;;9.80;;
9214;SDS011;4642;51.364;6.788;2022-12-18T17:01:21;20.87;;;10.90;;
9214;SDS011;4642;51.364;6.788;2022-12-18T17:03:54;18.13;;;10.87;;
9214;SDS011;4642;51.364;6.788;2022-12-18T17:06:28;21.33;;;11.20;;
9214;SDS011;4642;51.364;6.788;2022-12-18T17:08:55;19.93;;;11.27;;
9214;SDS011;4642;51.364;6.788;2022-12-18T17:11:22;21.20;;;11.03;;
9214;SDS011;4642;51.364;6.788;2022-12-18T17:13:49;22.03;;;11.53;;
9214;SDS011;4642;51.364;6.788;2022-12-18T17:16:14;21.10;;;10.90;;
9214;SDS011;4642;51.364;6.788;2022-12-18T17:18:41;20.03;;;11.80;;
9214;SDS011;4642;51.364;6.788;2022-12-18T17:21:08;22.63;;;11.93;;
9214;SDS011;4642;51.364;6.788;2022-12-18T17:23:34;19.90;;;11.17;;
9214;SDS011;4642;51.364;6.788;2022-12-18T17:26:01;20.83;;;11.03;;
9214;SDS011;4642;51.364;6.788;2022-12-18T17:28:28;21.20;;;12.00;;